Time;durP1;ratioP1;P1;durP2;ratioP2;P2;SDS_P1;SDS_P2;PMS_P1;PMS_P2;Temp;Humidity;BMP_temperature;BMP_pressure;BME280_temperature;BME280_humidity;BME280_pressure;Samples;Min_cycle;Max_cycle;Signal;HPM_P1;HPM_P2
2023/12/06 00:02:10;;;;;;;23.60;10.93;;;;;;;;;;4994173;28;20049;-76
2023/12/06 00:04:36;;;;;;;19.10;10.52;;;;;;;;;;4993417;28;20481;-76
2023/12/06 00:07:02;;;;;;;21.33;10.20;;;;;;;;;;4960648;28;20034;-77
2023/12/06 00:09:27;;;;;;;20.20;10.00;;;;;;;;;;4977070;28;20034;-76
2023/12/06 00:11:52;;;;;;;19.55;10.38;;;;;;;;;;4994127;28;20030;-76
2023/12/06 00:14:18;;;;;;;26.85;11.30;;;;;;;;;;4975517;28;20097;-77
2023/12/06 00:16:44;;;;;;;21.75;11.07;;;;;;;;;;4994230;28;20057;-77
2023/12/06 00:19:09;;;;;;;18.65;10.13;;;;;;;;;;4944750;28;20030;-76
2023/12/06 00:21:36;;;;;;;21.88;10.48;;;;;;;;;;4960587;28;20034;-76
2023/12/06 00:24:04;;;;;;;21.42;10.48;;;;;;;;;;4960064;28;20096;-77
2023/12/06 00:26:29;;;;;;;16.60;9.45;;;;;;;;;;4976346;28;20394;-76
2023/12/06 00:28:55;;;;;;;22.50;10.05;;;;;;;;;;4960586;28;20069;-77
2023/12/06 00:31:21;;;;;;;22.02;10.18;;;;;;;;;;4959189;28;20030;-77
2023/12/06 00:33:47;;;;;;;21.23;10.02;;;;;;;;;;4976032;28;20045;-77
2023/12/06 00:36:12;;;;;;;20.40;10.40;;;;;;;;;;4993484;28;20038;-77
2023/12/06 00:38:38;;;;;;;19.65;11.00;;;;;;;;;;4976007;28;20060;-76
2023/12/06 00:41:06;;;;;;;19.23;10.07;;;;;;;;;;4993655;28;20034;-76
2023/12/06 00:43:31;;;;;;;20.13;10.15;;;;;;;;;;4975615;28;20038;-76
2023/12/06 00:45:57;;;;;;;21.13;9.95;;;;;;;;;;4992755;28;20030;-76
2023/12/06 00:48:22;;;;;;;21.35;11.23;;;;;;;;;;4993374;28;20161;-76
2023/12/06 00:50:48;;;;;;;21.42;11.40;;;;;;;;;;4993225;28;20410;-77
2023/12/06 00:53:13;;;;;;;20.10;10.93;;;;;;;;;;4992798;28;20080;-77
2023/12/06 00:55:39;;;;;;;19.85;10.45;;;;;;;;;;4993383;28;20057;-76
2023/12/06 00:58:05;;;;;;;18.52;10.52;;;;;;;;;;4976027;28;20038;-77
2023/12/06 01:00:30;;;;;;;18.40;10.10;;;;;;;;;;4993910;28;20038;-77
2023/12/06 01:02:56;;;;;;;22.30;10.20;;;;;;;;;;4993015;28;20073;-77
2023/12/06 01:05:21;;;;;;;20.50;11.00;;;;;;;;;;4976987;28;20069;-77
2023/12/06 01:07:47;;;;;;;22.20;10.82;;;;;;;;;;4978954;28;20398;-75
2023/12/06 01:10:12;;;;;;;20.75;11.05;;;;;;;;;;5001091;28;20034;-76
2023/12/06 01:12:39;;;;;;;18.55;10.55;;;;;;;;;;4963153;28;20030;-77
2023/12/06 01:15:05;;;;;;;16.95;9.60;;;;;;;;;;5015333;28;20099;-76
2023/12/06 01:17:32;;;;;;;16.83;9.82;;;;;;;;;;5000530;28;20030;-76
2023/12/06 01:19:59;;;;;;;17.98;9.90;;;;;;;;;;4996118;28;20078;-76
2023/12/06 01:22:24;;;;;;;19.95;9.82;;;;;;;;;;4994231;28;20050;-76
2023/12/06 01:24:50;;;;;;;22.13;11.25;;;;;;;;;;4987571;28;20030;-77
2023/12/06 01:27:16;;;;;;;19.98;10.15;;;;;;;;;;4962204;28;20106;-77
2023/12/06 01:29:41;;;;;;;19.70;10.95;;;;;;;;;;4974113;28;20485;-77
2023/12/06 01:32:10;;;;;;;21.45;11.13;;;;;;;;;;4973472;28;20039;-77
2023/12/06 01:34:37;;;;;;;18.70;9.77;;;;;;;;;;4958237;28;20035;-76
2023/12/06 01:37:02;;;;;;;20.38;10.60;;;;;;;;;;4993496;28;20030;-77
2023/12/06 01:39:28;;;;;;;18.73;10.05;;;;;;;;;;4993271;28;20054;-77
2023/12/06 01:41:54;;;;;;;19.63;10.60;;;;;;;;;;4975419;28;20042;-77
2023/12/06 01:44:20;;;;;;;19.08;9.68;;;;;;;;;;4992405;28;20045;-78
2023/12/06 01:46:45;;;;;;;19.90;10.55;;;;;;;;;;4992772;28;20390;-76
2023/12/06 01:49:12;;;;;;;18.95;10.57;;;;;;;;;;4975437;28;20030;-76
2023/12/06 01:51:38;;;;;;;21.92;10.88;;;;;;;;;;4974242;28;20033;-77
2023/12/06 01:54:04;;;;;;;20.73;10.45;;;;;;;;;;4992102;28;20038;-77
2023/12/06 01:56:29;;;;;;;22.67;10.07;;;;;;;;;;4975535;28;20045;-76
2023/12/06 01:58:55;;;;;;;19.38;9.50;;;;;;;;;;4992423;28;20037;-76
2023/12/06 02:01:21;;;;;;;20.10;10.10;;;;;;;;;;4992705;28;20058;-76
2023/12/06 02:03:47;;;;;;;19.90;10.02;;;;;;;;;;4992088;28;20026;-77
2023/12/06 02:06:13;;;;;;;16.73;9.40;;;;;;;;;;4993450;28;20118;-77
2023/12/06 02:08:39;;;;;;;21.02;9.82;;;;;;;;;;4995050;28;20057;-76
2023/12/06 02:11:05;;;;;;;19.67;10.07;;;;;;;;;;4996017;28;20054;-77
2023/12/06 02:13:31;;;;;;;19.50;10.13;;;;;;;;;;4996150;28;20037;-76
2023/12/06 02:15:59;;;;;;;20.67;9.68;;;;;;;;;;4978592;28;20042;-76
2023/12/06 02:18:25;;;;;;;18.60;10.55;;;;;;;;;;4977679;28;20045;-77
2023/12/06 02:20:51;;;;;;;20.60;10.30;;;;;;;;;;4993780;28;20541;-76
2023/12/06 02:23:17;;;;;;;17.88;10.00;;;;;;;;;;4990556;28;20034;-76
2023/12/06 02:25:43;;;;;;;18.70;10.27;;;;;;;;;;4992659;28;20030;-77
2023/12/06 02:28:08;;;;;;;18.00;9.40;;;;;;;;;;4978350;28;20053;-76
2023/12/06 02:30:34;;;;;;;17.45;10.10;;;;;;;;;;4995737;28;20064;-77
2023/12/06 02:32:59;;;;;;;18.10;9.63;;;;;;;;;;4977950;28;20038;-77
2023/12/06 02:35:38;;;;;;;16.85;10.15;;;;;;;;;;4962277;28;20038;-75
2023/12/06 02:38:05;;;;;;;16.70;9.68;;;;;;;;;;4993383;28;20065;-76
2023/12/06 02:40:31;;;;;;;21.15;9.75;;;;;;;;;;4978359;28;20026;-76
2023/12/06 02:42:57;;;;;;;17.33;9.50;;;;;;;;;;4977915;28;20038;-76
2023/12/06 02:45:23;;;;;;;17.73;9.45;;;;;;;;;;4978183;28;20061;-76
2023/12/06 02:47:48;;;;;;;19.27;9.77;;;;;;;;;;4995666;28;20479;-76
2023/12/06 02:50:14;;;;;;;22.33;10.35;;;;;;;;;;4995572;28;20031;-78
2023/12/06 02:52:39;;;;;;;16.38;9.32;;;;;;;;;;4995586;28;20640;-77
2023/12/06 02:55:05;;;;;;;17.40;10.15;;;;;;;;;;4976614;28;20039;-77
2023/12/06 02:57:31;;;;;;;15.82;9.20;;;;;;;;;;4978169;28;20549;-76
2023/12/06 02:59:57;;;;;;;18.52;10.38;;;;;;;;;;4961960;28;20054;-76
2023/12/06 03:02:22;;;;;;;17.80;9.77;;;;;;;;;;4979674;28;20034;-77
2023/12/06 03:04:48;;;;;;;19.10;10.43;;;;;;;;;;4977746;28;20045;-76
2023/12/06 03:07:13;;;;;;;21.20;10.38;;;;;;;;;;4995178;28;20035;-76
2023/12/06 03:09:39;;;;;;;17.13;9.98;;;;;;;;;;4961698;28;20125;-76
2023/12/06 03:12:07;;;;;;;16.13;9.63;;;;;;;;;;4993938;28;20479;-75
2023/12/06 03:14:32;;;;;;;20.38;10.15;;;;;;;;;;4994993;28;20527;-76
2023/12/06 03:16:58;;;;;;;16.48;9.32;;;;;;;;;;4995255;28;20058;-76
2023/12/06 03:19:23;;;;;;;20.35;9.25;;;;;;;;;;4977758;28;20164;-76
2023/12/06 03:21:49;;;;;;;17.60;9.48;;;;;;;;;;4995204;28;20030;-77
2023/12/06 03:24:18;;;;;;;18.77;10.38;;;;;;;;;;4977267;28;20528;-76
2023/12/06 03:26:43;;;;;;;17.15;10.13;;;;;;;;;;4976316;28;20026;-77
2023/12/06 03:29:08;;;;;;;19.20;9.60;;;;;;;;;;4977561;28;20538;-77
2023/12/06 03:31:34;;;;;;;18.48;10.25;;;;;;;;;;4977794;28;20027;-75
2023/12/06 03:33:59;;;;;;;17.33;9.68;;;;;;;;;;4977903;28;20033;-75
2023/12/06 03:36:25;;;;;;;18.88;10.77;;;;;;;;;;4995011;28;20098;-76
2023/12/06 03:38:50;;;;;;;17.17;8.88;;;;;;;;;;4995035;28;20475;-76
2023/12/06 03:41:16;;;;;;;16.42;10.05;;;;;;;;;;4977377;28;20450;-76
2023/12/06 03:43:42;;;;;;;19.23;10.63;;;;;;;;;;4976135;28;20034;-77
2023/12/06 03:46:08;;;;;;;15.88;9.43;;;;;;;;;;4995177;28;20040;-76
2023/12/06 03:48:34;;;;;;;19.40;10.15;;;;;;;;;;4978688;28;20122;-77
2023/12/06 03:50:59;;;;;;;17.65;10.40;;;;;;;;;;4947004;28;20081;-76
2023/12/06 03:53:25;;;;;;;17.67;9.88;;;;;;;;;;4979010;28;20038;-76
2023/12/06 03:55:50;;;;;;;19.55;10.95;;;;;;;;;;4973117;28;20038;-75
2023/12/06 03:58:16;;;;;;;18.50;10.05;;;;;;;;;;4975706;28;20081;-76
2023/12/06 04:00:41;;;;;;;17.83;10.05;;;;;;;;;;4992408;28;20050;-77
2023/12/06 04:03:10;;;;;;;17.40;9.50;;;;;;;;;;4998056;28;20038;-76
2023/12/06 04:05:35;;;;;;;17.63;9.75;;;;;;;;;;4998581;28;20031;-75
2023/12/06 04:08:01;;;;;;;17.25;10.00;;;;;;;;;;4997366;28;20091;-76
2023/12/06 04:10:26;;;;;;;15.88;9.18;;;;;;;;;;4959742;28;20066;-77
2023/12/06 04:12:52;;;;;;;18.42;9.73;;;;;;;;;;4950498;28;20381;-76
2023/12/06 04:15:19;;;;;;;21.70;10.07;;;;;;;;;;4986813;28;20491;-76
2023/12/06 04:17:45;;;;;;;17.73;10.13;;;;;;;;;;4975962;28;20042;-76
2023/12/06 04:20:14;;;;;;;21.05;10.95;;;;;;;;;;4981533;28;20423;-76
2023/12/06 04:22:42;;;;;;;22.38;9.93;;;;;;;;;;4989648;28;20077;-78
2023/12/06 04:28:03;;;;;;;17.23;9.70;;;;;;;;;;4976624;28;20046;-76
2023/12/06 04:30:30;;;;;;;19.83;9.18;;;;;;;;;;4976532;28;20088;-75
2023/12/06 04:33:00;;;;;;;17.67;10.32;;;;;;;;;;4992430;28;20035;-76
2023/12/06 04:35:27;;;;;;;19.35;10.57;;;;;;;;;;4975445;28;20089;-77
2023/12/06 04:37:54;;;;;;;21.25;9.93;;;;;;;;;;4993819;28;20109;-77
2023/12/06 04:40:20;;;;;;;16.10;8.80;;;;;;;;;;4947179;28;20065;-76
2023/12/06 04:42:47;;;;;;;18.25;9.75;;;;;;;;;;4964603;28;20113;-77
2023/12/06 04:45:13;;;;;;;16.42;9.75;;;;;;;;;;4999191;28;20497;-76
2023/12/06 04:47:39;;;;;;;17.13;8.77;;;;;;;;;;5012932;28;20058;-77
2023/12/06 04:50:05;;;;;;;19.90;9.75;;;;;;;;;;4962176;28;20035;-77
2023/12/06 04:52:31;;;;;;;17.30;9.30;;;;;;;;;;4957574;28;20031;-76
2023/12/06 04:54:57;;;;;;;18.17;9.40;;;;;;;;;;4973438;28;20041;-77
2023/12/06 04:57:22;;;;;;;16.63;9.15;;;;;;;;;;4989281;28;20101;-76
2023/12/06 04:59:48;;;;;;;16.80;8.95;;;;;;;;;;4973484;28;20114;-76
2023/12/06 05:02:13;;;;;;;18.67;9.23;;;;;;;;;;4973414;28;20031;-76
2023/12/06 05:04:39;;;;;;;16.95;9.23;;;;;;;;;;4988826;28;20551;-78
2023/12/06 05:07:04;;;;;;;16.52;8.80;;;;;;;;;;4941198;28;20035;-76
2023/12/06 05:09:30;;;;;;;16.55;8.13;;;;;;;;;;4941509;28;20499;-76
2023/12/06 05:11:55;;;;;;;15.73;8.80;;;;;;;;;;4941559;28;20077;-76
2023/12/06 05:14:21;;;;;;;17.75;9.13;;;;;;;;;;4972448;28;20162;-77
2023/12/06 05:16:46;;;;;;;16.85;8.35;;;;;;;;;;4974128;28;20030;-77
2023/12/06 05:19:12;;;;;;;16.45;8.60;;;;;;;;;;4972769;28;20066;-77
2023/12/06 05:21:37;;;;;;;17.27;9.00;;;;;;;;;;4972546;28;20038;-77
2023/12/06 05:24:03;;;;;;;15.07;8.70;;;;;;;;;;4968626;28;20022;-77
2023/12/06 05:26:28;;;;;;;18.10;8.43;;;;;;;;;;5008636;28;20034;-77
2023/12/06 05:28:54;;;;;;;15.98;7.50;;;;;;;;;;4994140;28;20030;-76
2023/12/06 05:31:21;;;;;;;15.98;8.57;;;;;;;;;;4960721;28;20465;-77
2023/12/06 05:33:48;;;;;;;14.98;8.20;;;;;;;;;;5009077;28;20065;-77
2023/12/06 05:36:14;;;;;;;15.60;8.45;;;;;;;;;;5008312;28;20064;-77
2023/12/06 05:38:39;;;;;;;16.40;8.48;;;;;;;;;;4992819;28;20440;-76
2023/12/06 05:41:06;;;;;;;15.15;8.27;;;;;;;;;;4993247;28;20380;-77
2023/12/06 05:43:32;;;;;;;13.50;8.20;;;;;;;;;;4993033;28;20061;-76
2023/12/06 05:45:57;;;;;;;14.05;7.20;;;;;;;;;;4976161;28;20077;-76
2023/12/06 05:48:23;;;;;;;15.77;7.30;;;;;;;;;;4976163;28;20037;-76
2023/12/06 05:50:49;;;;;;;15.18;8.23;;;;;;;;;;4975870;28;20042;-77
2023/12/06 05:53:14;;;;;;;16.13;8.18;;;;;;;;;;4976342;28;20479;-77
2023/12/06 05:55:40;;;;;;;17.90;8.77;;;;;;;;;;4940613;28;20130;-77
2023/12/06 05:58:08;;;;;;;16.58;8.68;;;;;;;;;;4973058;28;20411;-76
2023/12/06 06:00:33;;;;;;;16.42;8.48;;;;;;;;;;4973887;28;20057;-77
2023/12/06 06:02:59;;;;;;;17.20;8.70;;;;;;;;;;4960795;28;20027;-76
2023/12/06 06:05:25;;;;;;;16.23;8.50;;;;;;;;;;4961638;28;20038;-78
2023/12/06 06:07:52;;;;;;;16.95;8.25;;;;;;;;;;4977370;28;20030;-76
2023/12/06 06:10:17;;;;;;;14.57;8.30;;;;;;;;;;4977476;28;20027;-77
2023/12/06 06:12:45;;;;;;;15.45;9.25;;;;;;;;;;4992827;28;20035;-78
2023/12/06 06:15:12;;;;;;;16.80;9.43;;;;;;;;;;5008720;28;20034;-77
2023/12/06 06:17:38;;;;;;;16.55;9.35;;;;;;;;;;4997769;28;20214;-76
2023/12/06 06:20:04;;;;;;;14.77;8.30;;;;;;;;;;4997533;28;20042;-77
2023/12/06 06:22:30;;;;;;;16.83;9.13;;;;;;;;;;4980046;28;20026;-77
2023/12/06 06:24:56;;;;;;;21.58;9.00;;;;;;;;;;4995049;28;20110;-77
2023/12/06 06:27:22;;;;;;;15.27;9.35;;;;;;;;;;4997824;28;20057;-76
2023/12/06 06:29:47;;;;;;;17.02;9.32;;;;;;;;;;4981018;28;20034;-77
2023/12/06 06:32:13;;;;;;;16.02;9.00;;;;;;;;;;4998557;28;20046;-78
2023/12/06 06:34:39;;;;;;;21.00;9.07;;;;;;;;;;4999037;28;20042;-77
2023/12/06 06:37:04;;;;;;;15.60;8.85;;;;;;;;;;5001887;28;20026;-76
2023/12/06 06:39:33;;;;;;;18.38;9.27;;;;;;;;;;5007196;28;20054;-76
2023/12/06 06:42:00;;;;;;;15.27;8.38;;;;;;;;;;4999825;28;20019;-77
2023/12/06 06:44:25;;;;;;;18.08;8.95;;;;;;;;;;5003088;28;20038;-76
2023/12/06 06:46:51;;;;;;;15.95;9.23;;;;;;;;;;5016004;28;20092;-76
2023/12/06 06:49:16;;;;;;;13.82;8.05;;;;;;;;;;5039236;28;20058;-77
2023/12/06 06:51:43;;;;;;;15.82;8.45;;;;;;;;;;5038653;28;20034;-77
2023/12/06 06:54:09;;;;;;;18.20;10.05;;;;;;;;;;5018599;28;20030;-76
2023/12/06 06:56:35;;;;;;;15.35;8.15;;;;;;;;;;5019805;28;20649;-77
2023/12/06 06:59:01;;;;;;;19.98;10.18;;;;;;;;;;4998864;28;20064;-77
2023/12/06 07:01:27;;;;;;;14.90;8.50;;;;;;;;;;5016590;28;20034;-76
2023/12/06 07:03:53;;;;;;;15.90;8.77;;;;;;;;;;5010057;28;20033;-76
2023/12/06 07:06:20;;;;;;;15.35;8.00;;;;;;;;;;5011321;28;20187;-77
2023/12/06 07:08:46;;;;;;;16.02;8.15;;;;;;;;;;4997166;28;20050;-78
2023/12/06 07:11:13;;;;;;;18.75;9.00;;;;;;;;;;4995780;28;20398;-77
2023/12/06 07:13:39;;;;;;;16.92;9.52;;;;;;;;;;4977905;28;20380;-76
2023/12/06 07:16:06;;;;;;;16.50;7.80;;;;;;;;;;4977615;28;20088;-76
2023/12/06 07:18:35;;;;;;;14.77;7.85;;;;;;;;;;4994498;28;20031;-77
2023/12/06 07:21:03;;;;;;;16.88;8.80;;;;;;;;;;4943281;28;20118;-78
2023/12/06 07:23:29;;;;;;;12.77;7.28;;;;;;;;;;4959813;28;20109;-77
2023/12/06 07:25:55;;;;;;;15.23;7.57;;;;;;;;;;4976607;28;20037;-77
2023/12/06 07:28:21;;;;;;;14.98;8.35;;;;;;;;;;4959267;28;20031;-77
2023/12/06 07:30:47;;;;;;;12.65;7.65;;;;;;;;;;4991591;28;20649;-77
2023/12/06 07:33:14;;;;;;;14.63;7.50;;;;;;;;;;4943237;28;20034;-77
2023/12/06 07:35:41;;;;;;;15.75;7.88;;;;;;;;;;4975862;28;20031;-77
2023/12/06 07:38:09;;;;;;;15.57;7.60;;;;;;;;;;4989866;28;20549;-77
2023/12/06 07:40:35;;;;;;;17.20;8.18;;;;;;;;;;4995756;28;20026;-76
2023/12/06 07:43:01;;;;;;;17.70;8.18;;;;;;;;;;4977906;28;20030;-75
2023/12/06 07:45:27;;;;;;;16.63;9.10;;;;;;;;;;4995612;28;20057;-76
2023/12/06 07:47:52;;;;;;;13.70;7.60;;;;;;;;;;4946380;28;20491;-76
2023/12/06 07:50:21;;;;;;;18.15;9.48;;;;;;;;;;4994387;28;20030;-78
2023/12/06 07:52:48;;;;;;;17.27;9.27;;;;;;;;;;4978035;28;20112;-78
2023/12/06 07:55:14;;;;;;;16.98;9.15;;;;;;;;;;4961690;28;20038;-77
2023/12/06 07:57:39;;;;;;;14.43;8.20;;;;;;;;;;4946173;28;20609;-76
2023/12/06 08:00:08;;;;;;;15.30;8.68;;;;;;;;;;4961313;28;20073;-77
2023/12/06 08:02:41;;;;;;;15.00;7.72;;;;;;;;;;4976350;28;20027;-77
2023/12/06 08:05:10;;;;;;;15.40;7.45;;;;;;;;;;4973730;28;20125;-77
2023/12/06 08:07:36;;;;;;;;;;;;;;;;;;4958735;28;20074;-77
2023/12/06 08:10:10;;;;;;;13.15;6.78;;;;;;;;;;4974411;28;19941;-76
2023/12/06 08:12:39;;;;;;;10.13;4.82;;;;;;;;;;4958671;28;20037;-77
2023/12/06 08:15:04;;;;;;;;;;;;;;;;;;4990780;28;20069;-76
2023/12/06 08:17:30;;;;;;;10.27;5.28;;;;;;;;;;4980810;28;19905;-78
2023/12/06 08:19:56;;;;;;;10.98;4.50;;;;;;;;;;4995379;28;20031;-76
2023/12/06 08:22:21;;;;;;;8.73;4.38;;;;;;;;;;4977913;28;20065;-78
2023/12/06 08:24:47;;;;;;;10.20;5.20;;;;;;;;;;4993110;28;20400;-78
2023/12/06 08:27:14;;;;;;;8.82;4.40;;;;;;;;;;4995329;28;20169;-76
2023/12/06 08:29:40;;;;;;;8.50;4.22;;;;;;;;;;4993834;28;20039;-78
2023/12/06 08:32:06;;;;;;;9.85;4.78;;;;;;;;;;4977186;28;20033;-77
2023/12/06 08:34:31;;;;;;;9.43;4.70;;;;;;;;;;4977019;28;20093;-78
2023/12/06 08:36:57;;;;;;;6.35;3.47;;;;;;;;;;4994043;28;20034;-78
2023/12/06 08:39:25;;;;;;;7.28;3.85;;;;;;;;;;5009778;28;20065;-78
2023/12/06 08:41:54;;;;;;;6.83;3.80;;;;;;;;;;4977540;28;20034;-77
2023/12/06 08:44:28;;;;;;;8.23;4.10;;;;;;;;;;4977962;28;20330;-77
2023/12/06 08:47:00;;;;;;;6.07;3.60;;;;;;;;;;4946022;28;20570;-77
2023/12/06 08:49:28;;;;;;;5.57;3.13;;;;;;;;;;4957435;28;20400;-78
2023/12/06 08:51:58;;;;;;;6.72;3.45;;;;;;;;;;4978240;28;20117;-76
2023/12/06 08:54:24;;;;;;;10.30;5.60;;;;;;;;;;4977110;28;20615;-77
2023/12/06 08:56:53;;;;;;;8.68;4.72;;;;;;;;;;4977602;28;20106;-77
2023/12/06 08:59:18;;;;;;;6.60;3.17;;;;;;;;;;4993273;28;20467;-77
2023/12/06 09:01:44;;;;;;;7.97;3.95;;;;;;;;;;4978104;28;20029;-76
2023/12/06 09:04:09;;;;;;;7.35;3.35;;;;;;;;;;4976319;28;20042;-76
2023/12/06 09:06:37;;;;;;;6.82;3.38;;;;;;;;;;4995513;28;20415;-76
2023/12/06 09:09:04;;;;;;;5.63;2.88;;;;;;;;;;4961607;28;20462;-75
2023/12/06 09:11:30;;;;;;;5.70;3.00;;;;;;;;;;4978639;28;20058;-76
2023/12/06 09:13:55;;;;;;;7.90;3.58;;;;;;;;;;4997945;28;20023;-76
2023/12/06 09:16:21;;;;;;;5.50;2.78;;;;;;;;;;5001518;28;20038;-76
2023/12/06 09:18:46;;;;;;;5.60;2.53;;;;;;;;;;4987482;28;20110;-76
2023/12/06 09:21:13;;;;;;;4.82;2.80;;;;;;;;;;5024853;28;20041;-77
2023/12/06 09:23:39;;;;;;;4.10;2.67;;;;;;;;;;5033603;28;20050;-76
2023/12/06 09:26:05;;;;;;;4.00;2.35;;;;;;;;;;5029381;28;20103;-76
2023/12/06 09:28:31;;;;;;;5.07;2.53;;;;;;;;;;5012947;28;20030;-76
2023/12/06 09:30:56;;;;;;;5.15;2.80;;;;;;;;;;5011950;28;20030;-75
2023/12/06 09:33:22;;;;;;;4.28;2.25;;;;;;;;;;5006573;28;20021;-77
2023/12/06 09:35:47;;;;;;;4.38;2.20;;;;;;;;;;5005973;28;20038;-76
2023/12/06 09:38:13;;;;;;;5.07;2.30;;;;;;;;;;5005016;28;20038;-77
2023/12/06 09:40:38;;;;;;;4.57;2.40;;;;;;;;;;4948153;28;20030;-76
2023/12/06 09:43:04;;;;;;;6.55;2.25;;;;;;;;;;4968109;28;20533;-77
2023/12/06 09:45:30;;;;;;;4.72;2.10;;;;;;;;;;4995013;28;20022;-77
2023/12/06 09:47:55;;;;;;;5.07;2.28;;;;;;;;;;5009509;28;20721;-76
2023/12/06 09:50:23;;;;;;;5.15;2.47;;;;;;;;;;5005284;28;20034;-76
2023/12/06 09:52:52;;;;;;;5.68;2.30;;;;;;;;;;5005181;28;20521;-77
2023/12/06 09:55:25;;;;;;;4.13;1.90;;;;;;;;;;4964347;28;20038;-76
2023/12/06 09:57:51;;;;;;;3.92;2.15;;;;;;;;;;4996218;28;20497;-76
2023/12/06 10:00:17;;;;;;;4.00;2.20;;;;;;;;;;4978558;28;20026;-77
2023/12/06 10:02:50;;;;;;;4.65;2.58;;;;;;;;;;4978160;28;20033;-76
2023/12/06 10:05:15;;;;;;;6.60;2.85;;;;;;;;;;4995656;28;20023;-77
2023/12/06 10:07:41;;;;;;;6.88;2.92;;;;;;;;;;4978424;28;20037;-77
2023/12/06 10:10:12;;;;;;;6.47;2.67;;;;;;;;;;4962965;28;20037;-77
2023/12/06 10:12:45;;;;;;;5.38;2.92;;;;;;;;;;4979117;28;20034;-77
2023/12/06 10:15:10;;;;;;;5.00;2.40;;;;;;;;;;4979501;28;20042;-78
2023/12/06 10:17:36;;;;;;;8.45;3.10;;;;;;;;;;4979666;28;20134;-78
2023/12/06 10:20:04;;;;;;;6.72;2.95;;;;;;;;;;4979331;28;20076;-77
2023/12/06 10:22:29;;;;;;;5.70;2.95;;;;;;;;;;4979054;28;20034;-77
2023/12/06 10:24:56;;;;;;;5.03;2.67;;;;;;;;;;4979333;28;20487;-77
2023/12/06 10:27:23;;;;;;;5.28;2.58;;;;;;;;;;4979235;28;20113;-77
2023/12/06 10:29:52;;;;;;;7.63;3.22;;;;;;;;;;4979414;28;20062;-78
2023/12/06 10:32:18;;;;;;;4.93;2.72;;;;;;;;;;4979574;28;20049;-77
2023/12/06 10:34:45;;;;;;;5.28;2.90;;;;;;;;;;4979076;28;20084;-77
2023/12/06 10:37:11;;;;;;;5.43;3.08;;;;;;;;;;4996067;28;20033;-77
2023/12/06 10:39:37;;;;;;;5.78;2.78;;;;;;;;;;4947138;28;20023;-77
2023/12/06 10:42:07;;;;;;;4.53;2.60;;;;;;;;;;4978983;28;20030;-77
2023/12/06 10:44:33;;;;;;;5.57;2.85;;;;;;;;;;5047841;23;20054;-79
2023/12/06 10:47:00;;;;;;;5.18;2.88;;;;;;;;;;4988350;28;20437;-80
2023/12/06 10:49:27;;;;;;;4.32;2.42;;;;;;;;;;4972957;28;20469;-81
2023/12/06 10:51:53;;;;;;;4.10;2.40;;;;;;;;;;5012629;28;20049;-78
2023/12/06 10:54:19;;;;;;;5.00;2.55;;;;;;;;;;4992998;28;20058;-80
2023/12/06 10:56:44;;;;;;;5.20;2.95;;;;;;;;;;4974042;28;20034;-80
2023/12/06 10:59:10;;;;;;;4.97;2.63;;;;;;;;;;4989140;28;20038;-80
2023/12/06 11:01:37;;;;;;;4.93;2.67;;;;;;;;;;4990925;28;20034;-80
2023/12/06 11:04:03;;;;;;;4.50;2.72;;;;;;;;;;4975252;28;20026;-80
2023/12/06 11:06:48;;;;;;;5.07;2.47;;;;;;;;;;4972504;28;20038;-80
2023/12/06 11:09:33;;;;;;;5.03;2.30;;;;;;;;;;4989408;28;20037;-78
2023/12/06 11:11:59;;;;;;;7.03;2.85;;;;;;;;;;4986980;28;20038;-79
2023/12/06 11:14:24;;;;;;;5.45;3.05;;;;;;;;;;4969608;28;20062;-79
2023/12/06 11:17:04;;;;;;;6.80;3.13;;;;;;;;;;4972207;28;20030;-81
2023/12/06 11:19:31;;;;;;;5.82;3.13;;;;;;;;;;4973612;28;20026;-80
2023/12/06 11:21:57;;;;;;;5.95;3.22;;;;;;;;;;4988812;28;20031;-79
2023/12/06 11:24:23;;;;;;;5.63;3.08;;;;;;;;;;4958413;28;20124;-79
2023/12/06 11:26:50;;;;;;;6.50;3.35;;;;;;;;;;4971400;28;20214;-79
2023/12/06 11:29:17;;;;;;;6.32;3.05;;;;;;;;;;4956374;28;20035;-80
2023/12/06 11:31:43;;;;;;;5.25;2.95;;;;;;;;;;4970209;28;20038;-82
2023/12/06 11:34:09;;;;;;;5.32;2.92;;;;;;;;;;4970844;28;20045;-80
2023/12/06 11:36:38;;;;;;;5.28;3.20;;;;;;;;;;4987311;28;20034;-80
2023/12/06 11:39:17;;;;;;;5.20;3.22;;;;;;;;;;4972397;28;20065;-79
2023/12/06 11:41:45;;;;;;;;;;;;;;;;;;5005172;28;20077;-79
2023/12/06 11:44:15;;;;;;;4.95;2.97;;;;;;;;;;4970152;28;19914;-79
2023/12/06 11:46:47;;;;;;;8.18;3.58;;;;;;;;;;4972423;28;20041;-78
2023/12/06 11:49:13;;;;;;;5.47;3.38;;;;;;;;;;4953450;28;20038;-79
2023/12/06 11:51:40;;;;;;;4.35;2.70;;;;;;;;;;4951360;28;20084;-80
2023/12/06 11:54:05;;;;;;;6.75;3.47;;;;;;;;;;4982219;28;20038;-79
2023/12/06 11:56:31;;;;;;;12.07;5.30;;;;;;;;;;4951565;28;20042;-80
2023/12/06 11:58:57;;;;;;;8.18;3.70;;;;;;;;;;4967286;28;20057;-79
2023/12/06 12:01:24;;;;;;;6.80;3.67;;;;;;;;;;4951018;28;20506;-80
2023/12/06 12:03:50;;;;;;;5.82;3.53;;;;;;;;;;4950675;28;20454;-80
2023/12/06 12:06:16;;;;;;;7.63;3.72;;;;;;;;;;4981590;28;20030;-78
2023/12/06 12:08:42;;;;;;;6.03;3.95;;;;;;;;;;4982662;28;20510;-79
2023/12/06 12:11:09;;;;;;;6.30;3.95;;;;;;;;;;4951191;28;20030;-78
2023/12/06 12:13:41;;;;;;;7.22;4.03;;;;;;;;;;5001211;28;20181;-80
2023/12/06 12:16:07;;;;;;;6.50;3.50;;;;;;;;;;4982800;28;20134;-81
2023/12/06 12:18:42;;;;;;;6.22;3.72;;;;;;;;;;4968331;28;20517;-80
2023/12/06 12:21:08;;;;;;;5.82;3.50;;;;;;;;;;4985168;28;20022;-79
2023/12/06 12:23:34;;;;;;;6.28;3.60;;;;;;;;;;4985696;28;20038;-80
2023/12/06 12:25:59;;;;;;;6.10;3.45;;;;;;;;;;4969757;28;20495;-81
2023/12/06 12:28:25;;;;;;;6.03;3.70;;;;;;;;;;4988564;28;20097;-80
2023/12/06 12:30:52;;;;;;;5.88;3.55;;;;;;;;;;4989145;28;20050;-78
2023/12/06 12:33:19;;;;;;;7.43;4.47;;;;;;;;;;4971709;28;20126;-80
2023/12/06 12:35:45;;;;;;;8.18;4.55;;;;;;;;;;4973744;28;20262;-81
2023/12/06 12:38:11;;;;;;;8.80;4.03;;;;;;;;;;4972654;28;20093;-80
2023/12/06 12:40:38;;;;;;;6.15;3.95;;;;;;;;;;4972261;28;20034;-79
2023/12/06 12:43:07;;;;;;;7.75;4.22;;;;;;;;;;4971717;28;20042;-79
2023/12/06 12:45:33;;;;;;;7.38;4.32;;;;;;;;;;4989174;28;20157;-79
2023/12/06 12:47:59;;;;;;;6.90;3.80;;;;;;;;;;5005148;28;20053;-79
2023/12/06 12:50:50;;;;;;;8.80;4.35;;;;;;;;;;4989730;28;20092;-79
2023/12/06 12:53:17;;;;;;;6.78;4.15;;;;;;;;;;4988794;28;20030;-80
2023/12/06 12:55:46;;;;;;;8.13;4.32;;;;;;;;;;4972084;28;20250;-78
2023/12/06 12:58:12;;;;;;;7.70;4.13;;;;;;;;;;4972704;28;20088;-79
2023/12/06 13:00:38;;;;;;;11.13;4.93;;;;;;;;;;4970264;28;20038;-79
2023/12/06 13:03:04;;;;;;;8.45;5.38;;;;;;;;;;4968830;28;20050;-80
2023/12/06 13:05:29;;;;;;;9.95;5.22;;;;;;;;;;4954312;28;20049;-79
2023/12/06 13:07:57;;;;;;;11.45;5.13;;;;;;;;;;4985442;28;20376;-79
2023/12/06 13:10:28;;;;;;;9.45;4.75;;;;;;;;;;4984515;28;20030;-79
2023/12/06 13:12:54;;;;;;;9.80;5.32;;;;;;;;;;4986522;28;20392;-81
2023/12/06 13:15:20;;;;;;;8.93;5.40;;;;;;;;;;4953780;28;20034;-81
2023/12/06 13:17:45;;;;;;;13.57;5.72;;;;;;;;;;4986208;28;20031;-80
2023/12/06 13:20:12;;;;;;;8.30;5.00;;;;;;;;;;4971194;28;20034;-80
2023/12/06 13:22:38;;;;;;;8.98;5.70;;;;;;;;;;4984341;28;20038;-80
2023/12/06 13:25:04;;;;;;;8.07;4.90;;;;;;;;;;4950902;28;20565;-79
2023/12/06 13:27:30;;;;;;;6.90;4.05;;;;;;;;;;4968003;28;20125;-80
2023/12/06 13:29:56;;;;;;;9.18;4.68;;;;;;;;;;4952959;28;20066;-81
2023/12/06 13:32:22;;;;;;;8.27;5.03;;;;;;;;;;4957422;28;20035;-81
2023/12/06 13:34:48;;;;;;;10.40;5.22;;;;;;;;;;4975168;28;20049;-81
2023/12/06 13:37:15;;;;;;;10.02;5.18;;;;;;;;;;4958446;28;20065;-81
2023/12/06 13:39:45;;;;;;;9.75;6.07;;;;;;;;;;4958859;28;20030;-81
2023/12/06 13:42:14;;;;;;;9.35;5.13;;;;;;;;;;4990926;28;20038;-80
2023/12/06 13:44:40;;;;;;;10.32;5.70;;;;;;;;;;4989159;28;20049;-79
2023/12/06 13:47:06;;;;;;;9.90;5.47;;;;;;;;;;4989768;28;20026;-79
2023/12/06 13:49:32;;;;;;;10.98;5.60;;;;;;;;;;4974173;28;20027;-81
2023/12/06 13:51:58;;;;;;;8.98;5.22;;;;;;;;;;4992161;28;20049;-81
2023/12/06 13:54:25;;;;;;;8.52;5.13;;;;;;;;;;4989672;28;20456;-81
2023/12/06 13:56:51;;;;;;;10.23;5.75;;;;;;;;;;4974909;28;20097;-81
2023/12/06 13:59:18;;;;;;;8.02;5.10;;;;;;;;;;4991193;28;20045;-81
2023/12/06 14:01:44;;;;;;;11.13;5.32;;;;;;;;;;4994020;28;20038;-80
2023/12/06 14:04:10;;;;;;;7.78;4.82;;;;;;;;;;4978669;28;20062;-80
2023/12/06 14:06:38;;;;;;;6.50;3.75;;;;;;;;;;4994424;28;20034;-81
2023/12/06 14:09:08;;;;;;;5.78;3.50;;;;;;;;;;4977497;28;20034;-80
2023/12/06 14:11:37;;;;;;;8.13;3.75;;;;;;;;;;4995535;28;20082;-79
2023/12/06 14:14:02;;;;;;;7.15;3.75;;;;;;;;;;4963722;28;20030;-80
2023/12/06 14:16:28;;;;;;;7.15;3.38;;;;;;;;;;4979340;28;20042;-81
2023/12/06 14:18:54;;;;;;;5.85;3.50;;;;;;;;;;4978771;28;20031;-80
2023/12/06 14:21:20;;;;;;;5.07;3.05;;;;;;;;;;4963248;28;20062;-79
2023/12/06 14:23:46;;;;;;;6.65;3.38;;;;;;;;;;5016068;28;20093;-79
2023/12/06 14:26:14;;;;;;;5.38;3.50;;;;;;;;;;5016180;28;20030;-78
2023/12/06 14:28:39;;;;;;;6.00;3.50;;;;;;;;;;4967521;28;20026;-80
2023/12/06 14:31:07;;;;;;;6.55;3.85;;;;;;;;;;4983539;28;20036;-80
2023/12/06 14:33:35;;;;;;;6.28;3.88;;;;;;;;;;4966034;28;20050;-80